Time;durP1;ratioP1;P1;durP2;ratioP2;P2;SDS_P1;SDS_P2;PMS_P1;PMS_P2;Temp;Humidity;BMP_temperature;BMP_pressure;BME280_temperature;BME280_humidity;BME280_pressure;Samples;Min_cycle;Max_cycle;Signal;HPM_P1;HPM_P2
2021/03/27 00:04:08;;;;;;;8.13;6.57;;;13.40;76.80;;;;;;2063819;28;20042;-79
2021/03/27 00:05:23;;;;;;;10.73;6.47;;;13.40;77.40;;;;;;2064130;28;20029;-80
2021/03/27 00:06:51;;;;;;;12.23;6.30;;;13.40;78.00;;;;;;2064094;28;20031;-79
2021/03/27 00:08:27;;;;;;;9.13;6.82;;;13.40;77.80;;;;;;2064288;28;20026;-79
2021/03/27 00:09:46;;;;;;;11.18;7.07;;;13.40;77.30;;;;;;2047012;29;20048;-80
2021/03/27 00:11:04;;;;;;;9.68;7.07;;;13.30;79.50;;;;;;2047050;29;20042;-79
2021/03/27 00:12:11;;;;;;;11.23;7.53;;;13.30;80.40;;;;;;2058413;28;20041;-77
2021/03/27 00:13:28;;;;;;;12.95;6.95;;;13.30;79.20;;;;;;2064162;28;20029;-78
2021/03/27 00:18:28;;;;;;;10.95;5.28;;;13.10;89.60;;;;;;2063784;28;20027;-77
2021/03/27 00:19:35;;;;;;;20.10;5.85;;;13.00;88.60;;;;;;2064200;28;20023;-78
2021/03/27 00:20:41;;;;;;;10.07;5.30;;;12.90;88.20;;;;;;2064319;28;20050;-80
2021/03/27 00:21:50;;;;;;;8.15;4.85;;;12.90;88.60;;;;;;2063525;28;20473;-81
2021/03/27 00:23:22;;;;;;;14.77;5.00;;;12.90;90.30;;;;;;2063596;28;20130;-80
2021/03/27 00:24:36;;;;;;;8.32;4.30;;;12.80;90.60;;;;;;2063624;28;20029;-79
2021/03/27 00:25:42;;;;;;;4.50;3.67;;;12.60;90.00;;;;;;2064245;28;20062;-79
2021/03/27 00:26:44;;;;;;;7.70;3.33;;;12.60;89.20;;;;;;2063961;28;20481;-78
2021/03/27 00:28:16;;;;;;;6.53;3.80;;;12.60;88.50;;;;;;2063484;28;20113;-80
2021/03/27 00:29:22;;;;;;;6.20;3.92;;;12.50;90.40;;;;;;2063822;28;20029;-82
2021/03/27 00:30:51;;;;;;;5.45;3.58;;;12.40;90.50;;;;;;2063452;28;20019;-81
2021/03/27 00:32:01;;;;;;;5.28;3.60;;;12.40;91.30;;;;;;2059923;28;20035;-77
2021/03/27 00:33:03;;;;;;;4.57;3.50;;;12.30;90.50;;;;;;2063492;28;20033;-79
2021/03/27 00:34:08;;;;;;;3.10;2.80;;;12.30;90.10;;;;;;2063338;28;20437;-79
2021/03/27 00:35:28;;;;;;;11.55;4.03;;;12.30;90.60;;;;;;2064034;28;20029;-80
2021/03/27 00:36:41;;;;;;;4.10;3.20;;;12.20;91.90;;;;;;2064002;28;20113;-78
2021/03/27 00:37:45;;;;;;;4.88;3.47;;;12.20;91.60;;;;;;2063218;28;20070;-80
2021/03/27 00:38:49;;;;;;;3.72;3.33;;;12.20;92.20;;;;;;2063204;28;20047;-81
2021/03/27 00:39:52;;;;;;;3.58;3.00;;;12.10;92.20;;;;;;2063500;28;20102;-78
2021/03/27 00:40:53;;;;;;;4.88;3.55;;;12.10;91.80;;;;;;2063259;28;20446;-77
2021/03/27 00:42:06;;;;;;;3.45;3.08;;;12.10;91.70;;;;;;2063997;28;20022;-79
2021/03/27 00:43:13;;;;;;;8.20;3.65;;;12.10;92.30;;;;;;2063655;28;20031;-80
2021/03/27 00:44:15;;;;;;;3.65;3.35;;;12.00;93.10;;;;;;2063903;28;20023;-79
2021/03/27 00:45:24;;;;;;;4.97;3.20;;;12.00;92.50;;;;;;2064028;28;20069;-81
2021/03/27 00:46:25;;;;;;;5.88;3.15;;;12.00;93.70;;;;;;2063533;28;20031;-79
2021/03/27 00:47:28;;;;;;;5.55;3.47;;;11.90;93.40;;;;;;2063206;28;20466;-80
2021/03/27 00:48:34;;;;;;;3.50;3.05;;;11.90;94.40;;;;;;2064863;28;20027;-80
2021/03/27 00:49:46;;;;;;;4.03;3.63;;;11.80;94.90;;;;;;2064901;28;20441;-79
2021/03/27 00:50:52;;;;;;;5.88;3.30;;;11.70;96.80;;;;;;2065471;28;20027;-80
2021/03/27 00:52:01;;;;;;;7.05;3.17;;;11.70;97.10;;;;;;2065019;28;20022;-79
2021/03/27 00:53:25;;;;;;;3.53;3.22;;;11.60;97.30;;;;;;2065096;28;20105;-80
2021/03/27 00:54:38;;;;;;;7.05;3.00;;;11.60;99.20;;;;;;2065423;28;20061;-78
2021/03/27 00:55:58;;;;;;;5.13;2.80;;;11.60;99.50;;;;;;2065527;28;20026;-78
2021/03/27 00:57:07;;;;;;;3.53;2.70;;;11.50;99.00;;;;;;2065242;28;20042;-78
2021/03/27 00:58:34;;;;;;;7.85;5.25;;;11.40;99.00;;;;;;2064612;28;20026;-81
2021/03/27 00:59:43;;;;;;;6.65;5.03;;;11.30;99.90;;;;;;2065185;28;20023;-80
2021/03/27 01:00:46;;;;;;;7.22;6.47;;;11.20;99.20;;;;;;2064931;28;20529;-80
2021/03/27 01:01:51;;;;;;;9.52;6.82;;;11.10;99.40;;;;;;2065490;28;20105;-81
2021/03/27 01:02:58;;;;;;;7.88;7.10;;;11.10;99.60;;;;;;2065656;28;20072;-80
2021/03/27 01:04:04;;;;;;;10.23;8.05;;;11.10;99.90;;;;;;2065452;28;20022;-79
2021/03/27 01:05:09;;;;;;;9.10;8.20;;;11.00;99.90;;;;;;2065499;28;20470;-78
2021/03/27 01:06:22;;;;;;;8.50;7.45;;;11.00;99.90;;;;;;2065489;28;20373;-81
2021/03/27 01:07:26;;;;;;;10.73;9.23;;;11.00;99.90;;;;;;2064718;28;20026;-80
2021/03/27 01:08:31;;;;;;;9.27;8.40;;;10.90;99.90;;;;;;2064511;28;20604;-78
2021/03/27 01:09:45;;;;;;;9.82;8.15;;;10.90;99.90;;;;;;2064771;28;20026;-77
2021/03/27 01:10:50;;;;;;;13.05;11.75;;;10.90;99.90;;;;;;2065660;28;20022;-79
2021/03/27 01:12:11;;;;;;;13.15;11.75;;;10.80;99.90;;;;;;2065669;28;20377;-80
2021/03/27 01:13:16;;;;;;;12.65;11.50;;;10.80;99.90;;;;;;2065601;28;20069;-78
2021/03/27 01:14:22;;;;;;;12.90;11.60;;;10.70;99.90;;;;;;2064867;28;20520;-80
2021/03/27 01:15:28;;;;;;;15.57;12.38;;;10.70;99.90;;;;;;2064926;28;20022;-79
2021/03/27 01:16:33;;;;;;;13.57;12.20;;;10.60;99.90;;;;;;2072815;28;20030;-79
2021/03/27 01:17:38;;;;;;;13.90;12.07;;;10.60;99.90;;;;;;2064497;28;20469;-79
2021/03/27 01:18:42;;;;;;;14.70;13.02;;;10.60;99.90;;;;;;2064561;28;20631;-81
2021/03/27 01:19:49;;;;;;;12.82;11.60;;;10.50;99.90;;;;;;2065358;28;20029;-78
2021/03/27 01:20:56;;;;;;;13.98;12.57;;;10.50;99.90;;;;;;2064848;28;20053;-80
2021/03/27 01:21:59;;;;;;;13.48;12.10;;;10.50;99.90;;;;;;2065026;28;20018;-77
2021/03/27 01:23:00;;;;;;;14.15;12.75;;;10.50;99.90;;;;;;2065366;28;20026;-82
2021/03/27 01:24:14;;;;;;;12.48;11.27;;;10.50;99.90;;;;;;2065556;28;20034;-79
2021/03/27 01:25:20;;;;;;;10.02;8.95;;;10.40;99.90;;;;;;2065260;28;20014;-81
2021/03/27 01:26:25;;;;;;;8.07;7.45;;;10.40;99.90;;;;;;2064886;28;20146;-81
2021/03/27 01:27:33;;;;;;;8.88;7.97;;;10.40;99.90;;;;;;2064708;28;20022;-80
2021/03/27 01:28:51;;;;;;;7.07;6.47;;;10.30;99.90;;;;;;2066032;28;20022;-79
2021/03/27 01:30:12;;;;;;;6.53;5.93;;;10.30;99.90;;;;;;2065523;28;20022;-80
2021/03/27 01:31:18;;;;;;;6.57;5.90;;;10.20;99.90;;;;;;2064705;28;20018;-79
2021/03/27 01:32:49;;;;;;;5.57;5.03;;;10.20;99.90;;;;;;2065313;28;20021;-80
2021/03/27 01:33:57;;;;;;;4.65;4.25;;;10.20;99.90;;;;;;2065085;28;20026;-78
2021/03/27 01:35:06;;;;;;;5.75;5.25;;;10.00;99.90;;;;;;2064153;28;20033;-81
2021/03/27 01:36:16;;;;;;;4.45;4.05;;;10.00;99.90;;;;;;2064747;28;20425;-82
2021/03/27 01:37:22;;;;;;;4.65;4.25;;;10.00;99.90;;;;;;2064614;28;20033;-81
2021/03/27 01:38:35;;;;;;;5.18;4.40;;;9.90;99.90;;;;;;2064931;28;20030;-81
2021/03/27 01:39:54;;;;;;;4.80;4.40;;;9.90;99.90;;;;;;2064957;28;20023;-81
2021/03/27 01:41:12;;;;;;;5.15;4.68;;;9.80;99.90;;;;;;2064962;28;20071;-81
2021/03/27 01:42:35;;;;;;;5.22;4.82;;;9.80;99.90;;;;;;2065053;28;20409;-80
2021/03/27 01:43:42;;;;;;;4.82;4.43;;;9.80;99.90;;;;;;2064691;28;20085;-79
2021/03/27 01:44:57;;;;;;;7.55;5.55;;;9.70;99.90;;;;;;2065302;28;20034;-79
2021/03/27 01:46:19;;;;;;;5.60;5.20;;;9.70;99.90;;;;;;2065300;28;20076;-81
2021/03/27 01:48:04;;;;;;;5.88;5.32;;;9.60;99.90;;;;;;2064029;28;20077;-82
2021/03/27 01:49:22;;;;;;;6.53;5.93;;;9.60;99.90;;;;;;2070050;28;20430;-82
2021/03/27 01:50:39;;;;;;;6.47;5.85;;;9.50;99.90;;;;;;2070647;28;20018;-79
2021/03/27 01:51:59;;;;;;;7.80;7.15;;;9.50;99.90;;;;;;2064645;28;20429;-84
2021/03/27 01:53:35;;;;;;;9.77;6.95;;;9.50;99.90;;;;;;2064749;28;20164;-82
2021/03/27 01:54:48;;;;;;;7.57;6.63;;;9.40;99.90;;;;;;2065242;28;20040;-81
2021/03/27 01:55:48;;;;;;;6.93;6.43;;;9.30;99.90;;;;;;2065198;28;20499;-81
2021/03/27 01:57:26;;;;;;;7.07;6.47;;;9.30;99.90;;;;;;2064668;28;20022;-78
2021/03/27 01:58:38;;;;;;;8.00;7.20;;;9.30;99.90;;;;;;2064945;28;20101;-80
2021/03/27 01:59:44;;;;;;;7.35;6.75;;;9.20;99.90;;;;;;2065068;28;20425;-80
2021/03/27 02:01:28;;;;;;;7.38;6.75;;;9.20;99.90;;;;;;2065079;28;20381;-80
2021/03/27 02:02:53;;;;;;;7.20;6.50;;;9.20;99.90;;;;;;2048018;29;20027;-81
2021/03/27 02:04:01;;;;;;;6.15;5.55;;;9.20;99.90;;;;;;2047836;29;20471;-81
2021/03/27 02:05:19;;;;;;;7.82;5.57;;;9.20;99.90;;;;;;2060747;28;20038;-80
2021/03/27 02:06:46;;;;;;;6.80;5.35;;;9.20;99.90;;;;;;2062082;28;20454;-82
2021/03/27 02:08:13;;;;;;;7.68;5.90;;;9.20;99.90;;;;;;2064833;28;20036;-82
2021/03/27 02:09:37;;;;;;;5.93;5.30;;;9.20;99.90;;;;;;2065047;28;20022;-81
2021/03/27 02:10:46;;;;;;;5.45;4.63;;;9.20;99.90;;;;;;2065162;28;20019;-78
2021/03/27 02:12:11;;;;;;;8.60;5.20;;;9.20;99.90;;;;;;2065027;28;20036;-80
2021/03/27 02:13:34;;;;;;;7.28;4.93;;;9.20;99.90;;;;;;2064884;28;20504;-81
2021/03/27 02:14:48;;;;;;;5.25;4.22;;;9.20;99.90;;;;;;2065055;28;20057;-80
2021/03/27 02:16:27;;;;;;;7.43;5.45;;;9.20;99.90;;;;;;2064187;28;20485;-80
2021/03/27 02:17:35;;;;;;;5.07;3.92;;;9.10;99.90;;;;;;2064461;28;20492;-78
2021/03/27 02:18:42;;;;;;;7.63;4.50;;;9.10;99.90;;;;;;2064790;28;20434;-80
2021/03/27 02:20:07;;;;;;;6.03;4.20;;;9.10;99.90;;;;;;2064896;28;20030;-80
2021/03/27 02:21:10;;;;;;;6.97;4.45;;;9.10;99.90;;;;;;2065002;28;20109;-82
2021/03/27 02:22:29;;;;;;;6.35;3.90;;;9.10;99.90;;;;;;2064905;28;20030;-78
2021/03/27 02:24:00;;;;;;;6.25;3.80;;;9.10;99.90;;;;;;2064787;28;20022;-79
2021/03/27 02:25:37;;;;;;;8.40;4.25;;;9.10;99.90;;;;;;2064884;28;20061;-81
2021/03/27 02:26:58;;;;;;;4.80;4.10;;;9.10;99.90;;;;;;2064533;28;20088;-78
2021/03/27 02:28:29;;;;;;;5.30;4.13;;;9.10;99.90;;;;;;2064823;28;20050;-79
2021/03/27 02:29:54;;;;;;;4.93;4.47;;;9.10;99.90;;;;;;2064953;28;20026;-82
2021/03/27 02:31:21;;;;;;;4.20;3.70;;;9.00;99.90;;;;;;2064754;28;20029;-79
2021/03/27 02:32:45;;;;;;;4.03;3.63;;;9.00;99.90;;;;;;2064865;28;20050;-79
2021/03/27 02:33:49;;;;;;;7.72;4.55;;;9.00;99.90;;;;;;2063964;28;20126;-79
2021/03/27 02:35:09;;;;;;;8.35;4.45;;;9.00;99.90;;;;;;2063659;28;20022;-78
2021/03/27 02:36:19;;;;;;;5.10;4.60;;;9.00;99.90;;;;;;2058373;28;20118;-79
2021/03/27 02:37:29;;;;;;;6.20;4.18;;;9.00;99.90;;;;;;2063686;28;20014;-80
2021/03/27 02:38:52;;;;;;;6.47;4.25;;;9.00;99.90;;;;;;2064653;28;20022;-77
2021/03/27 02:40:07;;;;;;;5.97;4.57;;;9.00;99.90;;;;;;2064882;28;20022;-82
2021/03/27 02:41:32;;;;;;;8.10;4.53;;;9.00;99.90;;;;;;2063496;28;20026;-81
2021/03/27 02:43:00;;;;;;;11.55;5.35;;;9.00;99.90;;;;;;2063687;28;20072;-79
2021/03/27 02:44:11;;;;;;;6.18;5.32;;;8.90;99.90;;;;;;2064399;28;20062;-77
2021/03/27 02:45:18;;;;;;;9.45;5.22;;;8.90;99.90;;;;;;2064222;28;20473;-82
2021/03/27 02:46:37;;;;;;;6.55;5.30;;;8.90;99.90;;;;;;2064748;28;20023;-79
2021/03/27 02:47:37;;;;;;;7.05;5.80;;;9.00;99.90;;;;;;2064171;28;20567;-81
2021/03/27 02:49:08;;;;;;;6.57;5.07;;;8.90;99.90;;;;;;2064478;28;20022;-81
2021/03/27 02:50:46;;;;;;;5.80;5.07;;;8.90;99.90;;;;;;2064684;28;20432;-81
2021/03/27 02:52:14;;;;;;;5.80;4.78;;;8.90;99.90;;;;;;2063853;28;20026;-80
2021/03/27 02:53:27;;;;;;;5.45;4.88;;;8.90;99.90;;;;;;2063933;28;20069;-80
2021/03/27 02:54:54;;;;;;;9.18;5.53;;;8.90;99.90;;;;;;2063954;28;20034;-79
2021/03/27 02:56:16;;;;;;;8.90;4.45;;;8.90;99.90;;;;;;2064605;28;20501;-81
2021/03/27 02:57:29;;;;;;;6.40;4.05;;;8.80;99.90;;;;;;2064304;28;20026;-78
2021/03/27 02:58:55;;;;;;;6.63;3.58;;;8.90;99.90;;;;;;2064369;28;20112;-80
2021/03/27 03:00:07;;;;;;;4.82;3.20;;;8.80;99.90;;;;;;2048265;29;20039;-80
2021/03/27 03:01:10;;;;;;;5.18;3.17;;;8.80;99.90;;;;;;2064269;28;20437;-82
2021/03/27 03:02:16;;;;;;;7.20;3.50;;;8.80;99.90;;;;;;2064774;28;20050;-80
2021/03/27 03:03:29;;;;;;;7.68;3.75;;;8.80;99.90;;;;;;2064983;28;20118;-81
2021/03/27 03:04:47;;;;;;;4.10;3.60;;;8.80;99.90;;;;;;2064879;28;20026;-78
2021/03/27 03:05:54;;;;;;;3.90;3.42;;;8.80;99.90;;;;;;2064712;28;20102;-77
2021/03/27 03:07:01;;;;;;;6.68;3.80;;;8.80;99.90;;;;;;2064531;28;20052;-80
2021/03/27 03:08:07;;;;;;;7.00;4.20;;;8.80;99.90;;;;;;2064926;28;20030;-81
2021/03/27 03:09:20;;;;;;;5.47;4.05;;;8.80;99.90;;;;;;2064941;28;20022;-80
2021/03/27 03:10:32;;;;;;;8.15;4.70;;;8.80;99.90;;;;;;2063676;28;20026;-81
2021/03/27 03:12:10;;;;;;;7.28;5.45;;;8.80;99.90;;;;;;2064447;28;20088;-78
2021/03/27 03:13:32;;;;;;;6.20;5.32;;;8.80;99.90;;;;;;2055803;28;20394;-80
2021/03/27 03:14:42;;;;;;;6.95;4.80;;;8.70;99.90;;;;;;2064888;28;20073;-82
2021/03/27 03:15:57;;;;;;;8.68;4.63;;;8.70;99.90;;;;;;2064790;28;20029;-80
2021/03/27 03:17:16;;;;;;;7.63;5.50;;;8.70;99.90;;;;;;2064465;28;20030;-79
2021/03/27 03:18:38;;;;;;;7.88;4.88;;;8.70;99.90;;;;;;2064172;28;20506;-79
2021/03/27 03:19:58;;;;;;;7.60;4.95;;;8.70;99.90;;;;;;2058639;28;20050;-80
2021/03/27 03:21:19;;;;;;;11.23;5.68;;;8.70;99.90;;;;;;2064389;28;20022;-82
2021/03/27 03:22:34;;;;;;;7.88;4.93;;;8.70;99.90;;;;;;2064950;28;20068;-79
2021/03/27 03:24:08;;;;;;;9.60;4.57;;;8.70;99.90;;;;;;2064607;28;20425;-81
2021/03/27 03:25:16;;;;;;;7.93;4.75;;;8.70;99.90;;;;;;2064010;28;20038;-81
2021/03/27 03:26:29;;;;;;;9.00;4.72;;;8.70;99.90;;;;;;2064968;28;20061;-80
2021/03/27 03:27:53;;;;;;;7.38;5.07;;;8.70;99.90;;;;;;2064381;28;20078;-78
2021/03/27 03:29:16;;;;;;;6.90;5.35;;;8.60;99.90;;;;;;2064705;28;20022;-82
2021/03/27 03:30:25;;;;;;;14.35;5.97;;;8.60;99.90;;;;;;2064352;28;20069;-80
2021/03/27 03:31:38;;;;;;;6.60;5.00;;;8.60;99.90;;;;;;2064141;28;20548;-78
2021/03/27 03:32:46;;;;;;;9.05;5.40;;;8.60;99.90;;;;;;2064438;28;20266;-80
2021/03/27 03:34:12;;;;;;;7.75;5.15;;;8.60;99.90;;;;;;2064067;28;20509;-82
2021/03/27 03:35:41;;;;;;;9.05;4.38;;;8.60;99.90;;;;;;2064564;28;20022;-78
2021/03/27 03:36:48;;;;;;;8.25;4.70;;;8.60;99.90;;;;;;2064257;28;20101;-80
2021/03/27 03:38:19;;;;;;;8.25;5.43;;;8.50;99.90;;;;;;2064313;28;20027;-79
2021/03/27 03:39:48;;;;;;;6.95;5.13;;;8.60;99.90;;;;;;2064920;28;20393;-78
2021/03/27 03:41:15;;;;;;;10.45;5.38;;;8.60;99.90;;;;;;2063760;28;20060;-82
2021/03/27 03:42:40;;;;;;;7.20;6.13;;;8.50;99.90;;;;;;2064423;28;20022;-79
2021/03/27 03:44:16;;;;;;;12.38;6.45;;;8.50;99.90;;;;;;2064748;28;20033;-78
2021/03/27 03:45:31;;;;;;;8.57;6.90;;;8.50;99.90;;;;;;2047770;29;20038;-78
2021/03/27 03:47:09;;;;;;;8.20;6.57;;;8.50;99.90;;;;;;2064339;28;20039;-79
2021/03/27 03:48:46;;;;;;;8.88;6.30;;;8.50;99.90;;;;;;2064752;28;20098;-80
2021/03/27 03:50:04;;;;;;;9.27;6.25;;;8.50;99.90;;;;;;2064925;28;20030;-80
2021/03/27 03:51:23;;;;;;;6.88;5.57;;;8.50;99.90;;;;;;2064882;28;20496;-80
2021/03/27 03:53:00;;;;;;;8.48;5.53;;;8.50;99.90;;;;;;2064934;28;20089;-81
2021/03/27 03:54:34;;;;;;;11.43;6.05;;;8.50;99.90;;;;;;2064494;28;20034;-81
2021/03/27 03:56:09;;;;;;;9.90;6.03;;;8.50;99.90;;;;;;2063801;28;20085;-80
2021/03/27 03:57:28;;;;;;;8.60;5.53;;;8.50;99.90;;;;;;2063585;28;20101;-78
2021/03/27 03:58:38;;;;;;;10.90;5.97;;;8.50;99.90;;;;;;2064661;28;20443;-79
2021/03/27 04:00:22;;;;;;;7.93;5.30;;;8.50;99.90;;;;;;2064981;28;20655;-79
2021/03/27 04:01:25;;;;;;;6.60;4.80;;;8.50;99.90;;;;;;2047370;29;20029;-80
2021/03/27 04:02:33;;;;;;;10.50;5.25;;;8.50;99.90;;;;;;2047212;29;20382;-80
2021/03/27 04:03:36;;;;;;;10.48;4.80;;;8.50;99.90;;;;;;2053764;28;20101;-80
2021/03/27 04:04:47;;;;;;;5.82;4.30;;;8.50;99.90;;;;;;2064511;28;20026;-78
2021/03/27 04:06:02;;;;;;;10.52;4.40;;;8.50;99.90;;;;;;2064317;28;20022;-81
2021/03/27 04:07:06;;;;;;;9.02;4.82;;;8.50;99.90;;;;;;2063158;28;20031;-78
2021/03/27 04:08:37;;;;;;;7.07;4.22;;;8.50;99.90;;;;;;2055773;28;20031;-79
2021/03/27 04:09:54;;;;;;;6.82;4.03;;;8.50;99.90;;;;;;2064083;28;20033;-80
2021/03/27 04:11:08;;;;;;;7.53;4.38;;;8.50;99.90;;;;;;2063631;28;20022;-78
2021/03/27 04:12:38;;;;;;;6.80;4.03;;;8.50;99.90;;;;;;2063747;28;20033;-81
2021/03/27 04:13:49;;;;;;;8.23;4.18;;;8.50;99.90;;;;;;2064132;28;20019;-80
2021/03/27 04:15:22;;;;;;;9.40;4.00;;;8.40;99.90;;;;;;2064529;28;20029;-81
2021/03/27 04:16:27;;;;;;;6.65;3.70;;;8.40;99.90;;;;;;2064226;28;20018;-80
2021/03/27 04:18:06;;;;;;;7.90;4.32;;;8.40;99.90;;;;;;2063638;28;20042;-79
2021/03/27 04:19:17;;;;;;;9.10;4.10;;;8.40;99.90;;;;;;2063636;28;20072;-77
2021/03/27 04:20:47;;;;;;;7.57;4.03;;;8.40;99.90;;;;;;2064251;28;20030;-80
2021/03/27 04:26:17;;;;;;;8.32;3.78;;;8.30;99.90;;;;;;2048714;29;20105;-80
2021/03/27 04:27:42;;;;;;;5.78;3.03;;;8.30;99.90;;;;;;2061039;28;20030;-80
2021/03/27 04:28:59;;;;;;;6.10;3.58;;;8.30;99.90;;;;;;2065596;28;20034;-79
2021/03/27 04:30:05;;;;;;;6.63;3.42;;;8.30;99.90;;;;;;2065689;28;20473;-79
2021/03/27 04:31:37;;;;;;;6.47;3.83;;;8.30;99.90;;;;;;2065088;28;20030;-78
2021/03/27 04:32:53;;;;;;;6.32;3.47;;;8.30;99.90;;;;;;2065352;28;20026;-79
2021/03/27 04:34:41;;;;;;;8.90;3.97;;;8.30;99.90;;;;;;2065540;28;20077;-77
2021/03/27 04:36:02;;;;;;;9.93;4.05;;;8.30;99.90;;;;;;2062069;28;20389;-80
2021/03/27 04:37:05;;;;;;;;;;;8.20;99.90;;;;;;2065032;28;20397;-81
2021/03/27 04:38:36;;;;;;;6.30;3.50;;;8.10;99.90;;;;;;2064775;28;19906;-77
2021/03/27 04:39:50;;;;;;;11.57;4.28;;;8.10;99.90;;;;;;2064656;28;20029;-81
2021/03/27 04:41:23;;;;;;;7.63;3.72;;;8.10;99.90;;;;;;2065191;28;20038;-78
2021/03/27 04:42:51;;;;;;;8.27;4.45;;;8.10;99.90;;;;;;2065326;28;20077;-81
2021/03/27 04:44:10;;;;;;;12.60;4.20;;;8.10;99.90;;;;;;2065454;28;20023;-79
2021/03/27 04:45:47;;;;;;;7.18;3.92;;;8.10;99.90;;;;;;2065610;28;20018;-81
2021/03/27 04:46:58;;;;;;;7.20;4.03;;;8.10;99.90;;;;;;2065221;28;20449;-79
2021/03/27 04:48:22;;;;;;;9.88;4.25;;;8.10;99.90;;;;;;2065476;28;20046;-80
2021/03/27 04:49:44;;;;;;;7.22;3.85;;;8.10;99.90;;;;;;2065548;28;20118;-79
2021/03/27 04:51:22;;;;;;;7.70;3.40;;;8.10;99.90;;;;;;2065415;28;20018;-80
2021/03/27 04:52:57;;;;;;;12.02;3.95;;;8.10;99.90;;;;;;2048487;29;20061;-78
2021/03/27 04:54:08;;;;;;;8.13;3.63;;;8.10;99.90;;;;;;2065182;28;20045;-80
2021/03/27 04:55:37;;;;;;;5.60;4.05;;;8.10;99.90;;;;;;2065734;28;20102;-76
2021/03/27 04:56:43;;;;;;;6.47;3.55;;;8.10;99.90;;;;;;2065456;28;20036;-80
2021/03/27 04:57:59;;;;;;;6.53;3.30;;;8.10;99.90;;;;;;2065342;28;20026;-82
2021/03/27 04:59:31;;;;;;;9.00;3.65;;;8.10;99.90;;;;;;2065643;28;20076;-79
2021/03/27 05:00:54;;;;;;;6.22;3.58;;;8.10;99.90;;;;;;2065556;28;20033;-81
2021/03/27 05:02:07;;;;;;;8.98;3.83;;;8.10;99.90;;;;;;2065340;28;20033;-81
2021/03/27 05:03:37;;;;;;;7.80;3.67;;;8.10;99.90;;;;;;2064834;28;20050;-78
2021/03/27 05:04:57;;;;;;;11.82;3.58;;;8.10;99.90;;;;;;2065566;28;20018;-80
2021/03/27 05:06:20;;;;;;;;;;;8.10;99.90;;;;;;2065871;28;20154;-79
2021/03/27 05:07:27;;;;;;;5.28;3.40;;;7.90;99.90;;;;;;2064918;28;19906;-78
2021/03/27 05:08:56;;;;;;;12.98;4.43;;;8.00;99.90;;;;;;2065313;28;20593;-79
2021/03/27 05:10:25;;;;;;;10.40;4.05;;;8.00;99.90;;;;;;2065434;28;20389;-79
2021/03/27 05:11:34;;;;;;;9.80;4.05;;;7.90;99.90;;;;;;2062963;28;20054;-78
2021/03/27 05:12:44;;;;;;;8.43;3.83;;;8.00;99.90;;;;;;2064518;28;20022;-79
2021/03/27 05:14:00;;;;;;;7.50;3.75;;;8.00;99.90;;;;;;2065011;28;20405;-77
2021/03/27 05:15:19;;;;;;;11.50;3.88;;;8.00;99.90;;;;;;2065264;28;20092;-80
2021/03/27 05:16:24;;;;;;;8.38;3.97;;;8.00;99.90;;;;;;2064753;28;20113;-79
2021/03/27 05:17:42;;;;;;;11.40;3.95;;;8.00;99.90;;;;;;2064251;28;20026;-81
2021/03/27 05:18:55;;;;;;;9.57;3.55;;;8.00;99.90;;;;;;2064243;28;20057;-78
2021/03/27 05:20:24;;;;;;;9.65;4.05;;;8.00;99.90;;;;;;2064867;28;20473;-77
2021/03/27 05:21:37;;;;;;;14.27;5.50;;;8.00;99.90;;;;;;2065282;28;20026;-78
2021/03/27 05:22:58;;;;;;;12.15;4.20;;;8.00;99.90;;;;;;2065340;28;20481;-79
2021/03/27 05:24:32;;;;;;;8.07;3.22;;;8.00;99.90;;;;;;2064715;28;20026;-82
2021/03/27 05:25:41;;;;;;;9.23;3.88;;;8.00;99.90;;;;;;2048172;29;20019;-81
2021/03/27 05:26:54;;;;;;;14.80;4.20;;;8.00;99.90;;;;;;2062187;28;20604;-78
2021/03/27 05:28:01;;;;;;;12.50;4.13;;;8.00;99.90;;;;;;2064566;28;20417;-77
2021/03/27 05:29:15;;;;;;;8.95;4.25;;;8.00;99.90;;;;;;2065044;28;20027;-80
2021/03/27 05:30:34;;;;;;;10.40;3.67;;;8.10;99.90;;;;;;2065228;28;20022;-81
2021/03/27 05:31:52;;;;;;;10.10;3.85;;;8.00;99.90;;;;;;2065187;28;20033;-80
2021/03/27 05:33:18;;;;;;;10.30;3.47;;;8.00;99.90;;;;;;2064913;28;20019;-79
2021/03/27 05:34:33;;;;;;;11.85;3.33;;;8.00;99.90;;;;;;2065055;28;20014;-78
2021/03/27 05:35:39;;;;;;;10.52;3.85;;;8.00;99.90;;;;;;2065185;28;20015;-79
2021/03/27 05:37:00;;;;;;;11.18;3.63;;;8.00;99.90;;;;;;2065157;28;20631;-79
2021/03/27 05:38:13;;;;;;;9.05;3.67;;;8.00;99.90;;;;;;2065120;28;20037;-78
2021/03/27 05:39:33;;;;;;;8.52;3.03;;;8.10;99.90;;;;;;2065287;28;20045;-79
2021/03/27 05:40:55;;;;;;;9.73;3.72;;;8.00;99.90;;;;;;2065274;28;20382;-81
2021/03/27 05:42:16;;;;;;;10.02;4.22;;;8.00;99.90;;;;;;2064202;28;20031;-78
2021/03/27 05:43:54;;;;;;;12.77;3.88;;;8.10;99.90;;;;;;2063819;28;20121;-83
2021/03/27 05:45:13;;;;;;;13.75;3.67;;;8.00;99.90;;;;;;2064824;28;20023;-80
2021/03/27 05:46:32;;;;;;;13.35;3.53;;;8.00;99.90;;;;;;2065129;28;20014;-81
2021/03/27 05:47:35;;;;;;;12.00;3.47;;;8.10;99.90;;;;;;2063982;28;20022;-79
2021/03/27 05:48:54;;;;;;;7.22;3.30;;;8.10;99.90;;;;;;2064499;28;20029;-77
2021/03/27 05:50:21;;;;;;;7.72;3.55;;;8.10;99.90;;;;;;2064430;28;20026;-79
2021/03/27 05:51:33;;;;;;;9.95;2.88;;;8.10;99.90;;;;;;2064698;28;20018;-80
2021/03/27 05:53:11;;;;;;;7.53;2.88;;;8.10;99.90;;;;;;2064593;28;20023;-82
2021/03/27 05:54:14;;;;;;;10.05;3.10;;;8.10;99.90;;;;;;2064765;28;20095;-80
2021/03/27 05:56:07;;;;;;;13.48;3.00;;;8.10;99.90;;;;;;2065121;28;20473;-79
2021/03/27 05:57:08;;;;;;;13.45;3.38;;;8.10;99.90;;;;;;2060585;28;20474;-79
2021/03/27 05:58:20;;;;;;;8.38;3.05;;;8.10;99.90;;;;;;2064263;28;20097;-77
2021/03/27 05:59:59;;;;;;;8.30;3.20;;;8.10;99.90;;;;;;2065165;28;20377;-80
2021/03/27 06:01:26;;;;;;;11.35;3.50;;;8.20;99.90;;;;;;2056154;28;20077;-79
2021/03/27 06:03:06;;;;;;;11.40;3.38;;;8.10;99.90;;;;;;2051873;28;20041;-80
2021/03/27 06:04:25;;;;;;;12.90;3.88;;;8.10;99.90;;;;;;2064272;28;20109;-82
2021/03/27 06:05:57;;;;;;;12.02;2.97;;;8.10;99.90;;;;;;2064986;28;20026;-79
2021/03/27 06:07:21;;;;;;;14.23;3.70;;;8.10;99.90;;;;;;2064340;28;20092;-82
2021/03/27 06:12:34;;;;;;;7.47;3.28;;;8.10;99.90;;;;;;2064908;28;20018;-81
2021/03/27 06:13:58;;;;;;;8.02;2.58;;;8.10;99.90;;;;;;2064495;28;20023;-79
2021/03/27 06:15:34;;;;;;;8.63;3.00;;;8.10;99.90;;;;;;2065449;28;20520;-81
2021/03/27 06:20:49;;;;;;;12.57;3.42;;;8.20;99.90;;;;;;2065156;28;20484;-79
2021/03/27 06:22:35;;;;;;;15.60;4.05;;;8.10;99.90;;;;;;2064910;28;20022;-81
2021/03/27 06:24:04;;;;;;;9.48;3.33;;;8.10;99.90;;;;;;2064818;28;20117;-81
2021/03/27 06:25:07;;;;;;;10.10;3.58;;;8.10;99.90;;;;;;2064773;28;20037;-79
2021/03/27 06:26:53;;;;;;;10.23;3.97;;;8.20;99.90;;;;;;2064844;28;20014;-79
2021/03/27 06:28:18;;;;;;;12.13;3.55;;;8.20;99.90;;;;;;2064814;28;20033;-80
2021/03/27 06:29:21;;;;;;;10.57;3.80;;;8.20;99.90;;;;;;2064665;28;20018;-77
2021/03/27 06:30:39;;;;;;;8.98;3.45;;;8.20;99.90;;;;;;2064589;28;20018;-80
2021/03/27 06:32:18;;;;;;;10.40;3.67;;;8.30;99.90;;;;;;2064512;28;20022;-80
2021/03/27 06:33:31;;;;;;;9.57;3.63;;;8.30;99.90;;;;;;2063672;28;20038;-81
2021/03/27 06:34:37;;;;;;;11.25;3.72;;;8.30;99.90;;;;;;2057666;28;20382;-80
2021/03/27 06:35:41;;;;;;;12.45;4.38;;;8.30;99.90;;;;;;2064351;28;20030;-79
2021/03/27 06:37:08;;;;;;;7.00;3.88;;;8.40;99.90;;;;;;2064104;28;20034;-77
2021/03/27 06:38:22;;;;;;;7.47;3.63;;;8.40;99.90;;;;;;2064133;28;20485;-79
2021/03/27 06:39:31;;;;;;;9.10;3.17;;;8.40;99.90;;;;;;2063852;28;20105;-78
2021/03/27 06:40:35;;;;;;;8.68;3.38;;;8.40;99.90;;;;;;2064083;28;20022;-80
2021/03/27 06:42:01;;;;;;;9.77;3.47;;;8.40;99.90;;;;;;2064501;28;20030;-81
2021/03/27 06:43:19;;;;;;;9.63;3.72;;;8.50;99.90;;;;;;2063209;28;20022;-77
2021/03/27 06:44:57;;;;;;;14.23;4.00;;;8.50;99.90;;;;;;2063418;28;20663;-80
2021/03/27 06:46:18;;;;;;;7.05;3.40;;;8.50;99.90;;;;;;2063834;28;20030;-79
2021/03/27 06:47:21;;;;;;;11.57;3.95;;;8.60;99.90;;;;;;2063671;28;20102;-81
2021/03/27 06:48:37;;;;;;;10.38;3.90;;;8.60;99.90;;;;;;2064436;28;20025;-83
2021/03/27 06:50:08;;;;;;;11.43;4.03;;;8.70;99.90;;;;;;2064558;28;20026;-80
2021/03/27 06:51:18;;;;;;;6.60;3.50;;;8.70;99.90;;;;;;2064757;28;20026;-82
2021/03/27 06:52:43;;;;;;;10.98;4.35;;;8.70;99.90;;;;;;2064626;28;20108;-84
2021/03/27 06:54:26;;;;;;;8.95;3.53;;;8.80;99.90;;;;;;2064481;28;20385;-79
2021/03/27 06:56:08;;;;;;;10.50;4.18;;;8.80;99.90;;;;;;2064654;28;20113;-80
2021/03/27 06:57:18;;;;;;;11.93;3.70;;;8.80;99.90;;;;;;2042429;28;20098;-81
2021/03/27 06:58:37;;;;;;;8.90;4.15;;;8.80;99.90;;;;;;2063809;28;20018;-80
2021/03/27 07:00:16;;;;;;;12.48;4.25;;;8.80;99.90;;;;;;2064389;28;20027;-82
2021/03/27 07:01:38;;;;;;;10.43;3.75;;;8.80;99.90;;;;;;2064481;28;20027;-82
2021/03/27 07:03:06;;;;;;;10.70;3.75;;;8.80;99.90;;;;;;2063942;28;20496;-79
2021/03/27 07:04:27;;;;;;;10.88;4.10;;;8.90;99.90;;;;;;2063765;28;20120;-80
2021/03/27 07:05:37;;;;;;;10.55;4.18;;;8.90;99.90;;;;;;2064679;28;20473;-81
2021/03/27 07:06:43;;;;;;;11.13;3.92;;;8.90;99.90;;;;;;2064338;28;20030;-82
2021/03/27 07:08:04;;;;;;;8.85;3.97;;;8.90;99.90;;;;;;2063816;28;20524;-82